createdAt,value
2022-12-31T00:03:32.622Z,0.57
2022-12-31T00:11:38.082Z,0.40
2022-12-31T00:15:40.920Z,0.40
2022-12-31T00:19:51.787Z,0.40
2022-12-31T00:23:53.587Z,0.43
2022-12-31T00:27:55.859Z,0.70
2022-12-31T00:31:57.632Z,0.47
2022-12-31T00:36:30.352Z,0.50
2022-12-31T00:40:32.190Z,0.40
2022-12-31T00:44:33.940Z,0.70
2022-12-31T00:48:35.952Z,0.80
2022-12-31T00:52:37.764Z,1.10
2022-12-31T00:56:39.483Z,1.53
2022-12-31T01:00:41.416Z,1.20
2022-12-31T01:04:43.246Z,1.20
2022-12-31T01:08:45.227Z,1.43
2022-12-31T01:12:46.954Z,1.40
2022-12-31T01:16:51.402Z,1.40
2022-12-31T01:20:53.151Z,1.37
2022-12-31T01:24:54.890Z,1.40
2022-12-31T01:28:56.729Z,1.20
2022-12-31T01:32:58.574Z,1.40
2022-12-31T01:37:00.309Z,1.20
2022-12-31T01:41:02.520Z,1.30
2022-12-31T01:45:10.002Z,1.37
2022-12-31T01:49:25.291Z,1.30
2022-12-31T01:53:27.117Z,1.80
2022-12-31T01:57:28.908Z,1.93
2022-12-31T02:01:31.390Z,1.90
2022-12-31T02:05:57.497Z,1.70
2022-12-31T02:09:59.326Z,1.50
2022-12-31T02:14:05.742Z,2.07
2022-12-31T02:18:19.556Z,1.83
2022-12-31T02:23:07.864Z,1.60
2022-12-31T02:27:39.303Z,1.70
2022-12-31T02:32:04.175Z,1.67
2022-12-31T02:36:11.115Z,0.87
2022-12-31T02:40:15.249Z,0.40
2022-12-31T02:44:35.875Z,0.20
2022-12-31T02:48:41.939Z,0.10
2022-12-31T02:53:08.149Z,0.10
2022-12-31T02:57:34.037Z,0.10
2022-12-31T03:02:03.834Z,0.10
2022-12-31T03:06:06.101Z,0.10
2022-12-31T03:10:15.687Z,0.10
2022-12-31T03:14:30.707Z,0.20
2022-12-31T03:18:57.669Z,0.20
2022-12-31T03:23:05.673Z,0.10
2022-12-31T03:27:07.450Z,0.00
2022-12-31T03:31:09.385Z,0.10
2022-12-31T03:35:12.313Z,0.10
2022-12-31T03:39:14.011Z,0.30
2022-12-31T03:43:16.107Z,0.10
2022-12-31T03:47:17.854Z,0.10
2022-12-31T03:51:19.566Z,0.20
2022-12-31T03:55:21.322Z,0.00
2022-12-31T03:59:23.065Z,0.10
2022-12-31T04:03:25.071Z,0.10
2022-12-31T04:07:26.923Z,0.10
2022-12-31T04:11:28.731Z,0.10
2022-12-31T04:15:30.531Z,0.00
2022-12-31T04:19:32.397Z,0.10
2022-12-31T04:23:34.108Z,0.10
2022-12-31T04:27:35.834Z,0.00
2022-12-31T04:31:37.688Z,0.10
2022-12-31T04:35:39.434Z,0.20
2022-12-31T04:39:41.217Z,0.10
2022-12-31T04:43:44.324Z,0.20
2022-12-31T04:47:46.163Z,0.10
2022-12-31T04:51:47.860Z,0.20
2022-12-31T04:55:49.622Z,0.10
2022-12-31T04:59:51.582Z,0.10
2022-12-31T05:03:53.410Z,0.20
2022-12-31T05:07:55.159Z,0.10
2022-12-31T05:11:57.226Z,0.10
2022-12-31T05:15:59.137Z,0.10
2022-12-31T05:20:01.059Z,0.10
2022-12-31T05:24:03.325Z,0.10
2022-12-31T05:28:05.232Z,0.10
2022-12-31T05:32:07.649Z,0.10
2022-12-31T05:36:09.496Z,0.10
2022-12-31T05:40:12.356Z,0.10
2022-12-31T05:44:14.418Z,0.10
2022-12-31T05:48:16.194Z,0.10
2022-12-31T05:52:17.975Z,0.10
2022-12-31T05:56:20.562Z,0.00
2022-12-31T06:00:22.583Z,0.10
2022-12-31T06:04:24.422Z,0.00
2022-12-31T06:08:26.180Z,0.00
2022-12-31T06:12:27.906Z,0.10
2022-12-31T06:16:29.725Z,0.20
2022-12-31T06:20:31.489Z,0.10
2022-12-31T06:24:33.329Z,0.10
2022-12-31T06:28:35.319Z,0.10
2022-12-31T06:32:37.017Z,1.03
2022-12-31T06:36:38.932Z,0.10
2022-12-31T06:40:40.659Z,0.20
2022-12-31T06:44:42.594Z,0.10
2022-12-31T06:48:45.002Z,0.10
2022-12-31T06:52:46.821Z,0.20
2022-12-31T06:56:49.064Z,0.10
2022-12-31T07:01:20.512Z,0.20
2022-12-31T07:05:47.084Z,0.20
2022-12-31T07:10:25.713Z,0.20
2022-12-31T07:14:45.370Z,0.10
2022-12-31T07:18:57.755Z,0.30
2022-12-31T07:22:59.856Z,0.20
2022-12-31T07:27:45.769Z,0.40
2022-12-31T07:32:05.713Z,0.23
2022-12-31T07:36:41.233Z,0.30
2022-12-31T07:41:31.607Z,0.37
2022-12-31T07:45:39.210Z,0.40
2022-12-31T07:49:41.038Z,0.30
2022-12-31T07:53:42.786Z,0.40
2022-12-31T07:58:04.935Z,0.30
2022-12-31T08:02:44.248Z,0.20
2022-12-31T08:06:58.176Z,0.30
2022-12-31T08:11:25.779Z,0.30
2022-12-31T08:15:30.521Z,0.40
2022-12-31T08:19:32.977Z,0.30
2022-12-31T08:23:57.896Z,0.40
2022-12-31T08:28:12.908Z,0.50
2022-12-31T08:32:27.580Z,0.37
2022-12-31T08:37:13.710Z,0.40
2022-12-31T08:41:43.070Z,1.40
2022-12-31T08:45:56.323Z,0.60
2022-12-31T08:49:58.502Z,3.53
2022-12-31T08:54:00.620Z,0.80
2022-12-31T08:58:38.202Z,0.50
2022-12-31T09:03:03.904Z,1.10
2022-12-31T09:07:05.775Z,1.10
2022-12-31T09:11:22.835Z,0.80
2022-12-31T09:15:30.868Z,0.40
2022-12-31T09:19:32.617Z,0.60
2022-12-31T09:23:41.217Z,0.40
2022-12-31T09:28:10.801Z,0.60
2022-12-31T09:32:49.163Z,0.40
2022-12-31T09:37:05.488Z,0.40
2022-12-31T09:42:10.880Z,0.43
2022-12-31T09:46:52.718Z,0.67
2022-12-31T09:51:25.788Z,0.50
2022-12-31T09:55:53.084Z,0.50
2022-12-31T10:00:06.422Z,0.60
2022-12-31T10:04:36.711Z,0.50
2022-12-31T10:09:11.557Z,0.50
2022-12-31T10:13:54.506Z,0.50
2022-12-31T10:18:05.431Z,0.50
2022-12-31T10:22:29.837Z,0.60
2022-12-31T10:27:06.565Z,0.50
2022-12-31T10:31:26.182Z,0.50
2022-12-31T10:35:43.972Z,0.50
2022-12-31T10:39:53.421Z,0.47
2022-12-31T10:44:23.080Z,0.40
2022-12-31T10:48:52.191Z,0.70
2022-12-31T10:53:18.321Z,0.53
2022-12-31T10:57:45.219Z,0.50
2022-12-31T11:02:36.767Z,0.40
2022-12-31T11:07:16.990Z,0.60
2022-12-31T11:11:42.481Z,0.50
2022-12-31T11:16:20.911Z,0.50
2022-12-31T11:20:56.598Z,0.70
2022-12-31T11:25:19.003Z,0.60
2022-12-31T11:29:36.164Z,0.60
2022-12-31T11:34:06.509Z,0.60
2022-12-31T11:38:23.111Z,0.70
2022-12-31T11:42:55.776Z,0.70
2022-12-31T11:47:25.639Z,0.83
2022-12-31T11:51:52.139Z,0.60
2022-12-31T11:56:05.776Z,0.50
2022-12-31T12:00:21.918Z,0.90
2022-12-31T12:04:23.979Z,0.80
2022-12-31T12:08:27.350Z,0.83
2022-12-31T12:12:41.890Z,0.60
2022-12-31T12:16:43.559Z,0.47
2022-12-31T12:20:45.356Z,0.50
2022-12-31T12:25:08.263Z,0.70
2022-12-31T12:29:23.007Z,0.60
2022-12-31T12:33:25.033Z,0.53
2022-12-31T12:37:34.519Z,0.50
2022-12-31T12:41:36.282Z,0.50
2022-12-31T12:45:51.326Z,0.63
2022-12-31T12:49:54.353Z,0.40
2022-12-31T12:54:06.177Z,0.50
2022-12-31T12:58:51.053Z,0.40
2022-12-31T13:03:23.590Z,0.47
2022-12-31T13:08:22.044Z,0.70
2022-12-31T13:17:48.313Z,0.63
2022-12-31T13:22:11.774Z,0.50
2022-12-31T13:26:26.445Z,0.60
2022-12-31T13:30:37.326Z,0.50
2022-12-31T13:34:41.876Z,0.90
2022-12-31T13:38:54.299Z,0.93
2022-12-31T13:43:03.849Z,0.63
2022-12-31T13:47:24.396Z,0.53
2022-12-31T13:51:51.603Z,0.67
2022-12-31T13:56:02.062Z,0.63
2022-12-31T14:00:07.226Z,0.70
2022-12-31T14:04:32.427Z,0.60
2022-12-31T14:08:34.225Z,0.83
2022-12-31T14:12:55.944Z,0.50
2022-12-31T14:17:17.590Z,0.90
2022-12-31T14:21:25.458Z,0.60
2022-12-31T14:25:50.633Z,0.73
2022-12-31T14:29:57.167Z,0.73
2022-12-31T14:34:26.188Z,0.67
2022-12-31T14:38:55.413Z,0.70
2022-12-31T14:43:25.047Z,0.90
2022-12-31T14:47:53.011Z,0.70
2022-12-31T14:51:54.867Z,0.70
2022-12-31T14:56:07.500Z,0.70
2022-12-31T15:00:31.918Z,0.90
2022-12-31T15:04:44.996Z,2.00
2022-12-31T15:09:13.928Z,1.23
2022-12-31T15:14:06.155Z,1.07
2022-12-31T15:18:28.769Z,1.03
2022-12-31T15:22:50.083Z,0.90
2022-12-31T15:27:00.591Z,2.00
2022-12-31T15:31:20.310Z,1.07
2022-12-31T15:35:22.350Z,0.93
2022-12-31T15:39:32.855Z,1.07
2022-12-31T15:43:57.401Z,1.00
2022-12-31T15:48:00.881Z,1.50
2022-12-31T15:52:07.225Z,1.60
2022-12-31T15:56:18.211Z,2.17
2022-12-31T16:00:22.777Z,1.90
2022-12-31T16:04:29.032Z,1.93
2022-12-31T16:08:33.297Z,1.93
2022-12-31T16:12:38.247Z,1.43
2022-12-31T16:16:59.650Z,1.30
2022-12-31T16:21:01.393Z,2.50
2022-12-31T16:25:33.525Z,2.13
2022-12-31T16:29:25.111Z,3.70
2022-12-31T16:33:26.868Z,2.70
2022-12-31T16:37:28.671Z,2.10
2022-12-31T16:41:30.360Z,3.23
2022-12-31T16:45:36.697Z,3.10
2022-12-31T16:49:38.749Z,3.20
2022-12-31T16:53:40.657Z,2.33
2022-12-31T16:57:43.950Z,3.20
2022-12-31T17:01:45.772Z,3.00
2022-12-31T17:05:56.991Z,3.90
2022-12-31T17:10:08.678Z,3.87
2022-12-31T17:14:10.322Z,8.53
2022-12-31T17:18:23.160Z,6.40
2022-12-31T17:22:35.743Z,3.33
2022-12-31T17:26:38.711Z,4.63
2022-12-31T17:30:41.081Z,4.00
2022-12-31T17:34:49.489Z,2.60
2022-12-31T17:38:51.490Z,2.37
2022-12-31T17:42:53.204Z,1.83
2022-12-31T17:46:55.266Z,2.27
2022-12-31T17:51:00.355Z,2.20
2022-12-31T17:55:05.306Z,1.47
2022-12-31T17:59:07.179Z,1.70
2022-12-31T18:03:09.009Z,2.53
2022-12-31T18:07:11.046Z,2.80
2022-12-31T18:11:22.235Z,35.40
2022-12-31T18:15:24.855Z,13.80
2022-12-31T18:23:48.870Z,5.17
2022-12-31T18:27:54.275Z,9.70
2022-12-31T18:31:56.451Z,30.73
2022-12-31T18:36:08.628Z,16.30
2022-12-31T18:40:19.682Z,11.07
2022-12-31T18:44:26.483Z,13.30
2022-12-31T18:48:30.471Z,13.07
2022-12-31T18:52:41.621Z,22.50
2022-12-31T18:56:49.254Z,15.77
2022-12-31T19:00:53.264Z,17.03
2022-12-31T19:04:55.309Z,53.40
2022-12-31T19:08:59.154Z,29.20
2022-12-31T19:13:03.157Z,21.10
2022-12-31T19:21:06.138Z,7.17
2022-12-31T19:25:21.249Z,9.50
2022-12-31T19:29:25.599Z,10.70
2022-12-31T19:33:27.677Z,7.97
2022-12-31T19:37:29.501Z,7.60
2022-12-31T19:41:31.447Z,6.33
2022-12-31T19:45:33.370Z,4.97
2022-12-31T19:49:38.233Z,6.77
2022-12-31T19:53:46.482Z,4.90
2022-12-31T19:57:48.826Z,3.70
2022-12-31T20:01:53.529Z,3.67
2022-12-31T20:06:09.604Z,6.50
2022-12-31T20:10:11.491Z,5.20
2022-12-31T20:14:13.360Z,3.23
2022-12-31T20:18:21.060Z,2.47
2022-12-31T20:22:23.019Z,4.57
2022-12-31T20:26:25.283Z,4.87
2022-12-31T20:30:27.786Z,5.93
2022-12-31T20:34:29.912Z,4.33
2022-12-31T20:38:31.829Z,2.10
2022-12-31T20:42:33.834Z,1.70
2022-12-31T20:46:36.268Z,2.77
2022-12-31T20:50:40.941Z,2.63
2022-12-31T20:54:42.784Z,4.10
2022-12-31T20:58:44.938Z,4.03
2022-12-31T21:02:56.393Z,1.80
2022-12-31T21:07:10.109Z,1.97
2022-12-31T21:11:30.767Z,2.23
2022-12-31T21:15:32.779Z,2.40
2022-12-31T21:19:35.068Z,2.50
2022-12-31T21:23:38.345Z,34.60
2022-12-31T21:27:46.120Z,2.10
2022-12-31T21:31:53.239Z,2.00
2022-12-31T21:35:58.643Z,2.30
2022-12-31T21:40:05.230Z,1.40
2022-12-31T21:44:07.350Z,1.87
2022-12-31T21:48:22.038Z,1.60
2022-12-31T21:52:27.140Z,2.60
2022-12-31T21:56:31.566Z,1.77
2022-12-31T22:00:52.477Z,1.87
2022-12-31T22:05:02.349Z,2.63
2022-12-31T22:09:05.435Z,3.83
2022-12-31T22:13:07.376Z,5.33
2022-12-31T22:17:09.502Z,4.40
2022-12-31T22:21:20.043Z,2.30
2022-12-31T22:25:25.830Z,3.03
2022-12-31T22:29:27.970Z,3.87
2022-12-31T22:33:32.620Z,3.10
2022-12-31T22:41:56.499Z,3.07
2022-12-31T22:45:58.568Z,3.40
2022-12-31T22:50:00.618Z,3.10
2022-12-31T22:54:05.335Z,2.60
2022-12-31T22:58:09.774Z,2.30
2022-12-31T23:02:12.750Z,3.50
2022-12-31T23:06:14.979Z,21.33
2022-12-31T23:10:35.619Z,42.27
2022-12-31T23:14:56.875Z,44.23
2022-12-31T23:19:20.513Z,38.93
2022-12-31T23:23:22.647Z,51.33
2022-12-31T23:27:27.468Z,37.83
2022-12-31T23:31:30.032Z,28.87
2022-12-31T23:35:32.021Z,16.90
2022-12-31T23:39:33.910Z,19.13
2022-12-31T23:43:36.218Z,34.83
2022-12-31T23:47:37.988Z,15.17
2022-12-31T23:51:40.303Z,11.83
2022-12-31T23:55:44.719Z,8.23
2022-12-31T23:59:46.543Z,5.93
